createdAt,value
2019-03-26T00:01:46.895Z,75.03
2019-03-26T00:04:19.033Z,75.00
2019-03-26T00:06:50.347Z,75.06
2019-03-26T00:09:21.717Z,75.08
2019-03-26T00:11:53.687Z,75.19
2019-03-26T00:14:25.933Z,75.07
2019-03-26T00:16:57.317Z,75.07
2019-03-26T00:19:28.860Z,75.29
2019-03-26T00:22:00.223Z,75.46
2019-03-26T00:24:32.095Z,75.57
2019-03-26T00:27:07.622Z,75.86
2019-03-26T00:29:38.053Z,75.68
2019-03-26T00:32:09.466Z,75.81
2019-03-26T00:34:41.070Z,75.86
2019-03-26T00:37:13.876Z,75.97
2019-03-26T00:39:45.969Z,76.08
2019-03-26T00:42:17.324Z,76.22
2019-03-26T00:44:49.263Z,76.56
2019-03-26T00:47:20.944Z,76.62
2019-03-26T00:49:52.615Z,76.68
2019-03-26T00:52:24.458Z,76.88
2019-03-26T00:54:58.209Z,77.18
2019-03-26T00:57:29.966Z,77.52
2019-03-26T01:00:01.874Z,77.73
2019-03-26T01:02:33.343Z,77.87
2019-03-26T01:05:05.657Z,77.95
2019-03-26T01:07:37.380Z,77.98
2019-03-26T01:10:21.255Z,78.13
2019-03-26T01:12:52.785Z,78.27
2019-03-26T01:15:24.779Z,78.33
2019-03-26T01:17:56.162Z,78.39
2019-03-26T01:20:28.030Z,78.37
2019-03-26T01:23:01.913Z,78.56
2019-03-26T01:25:33.304Z,78.58
2019-03-26T01:28:04.891Z,78.61
2019-03-26T01:30:36.506Z,78.55
2019-03-26T01:33:08.118Z,78.60
2019-03-26T01:35:39.727Z,78.44
2019-03-26T01:38:11.171Z,78.48
2019-03-26T01:40:42.632Z,78.44
2019-03-26T01:43:14.988Z,78.51
2019-03-26T01:45:46.692Z,78.55
2019-03-26T01:48:18.470Z,78.58
2019-03-26T01:50:50.707Z,78.64
2019-03-26T01:53:22.093Z,78.69
2019-03-26T01:55:53.999Z,78.78
2019-03-26T01:58:25.703Z,78.83
2019-03-26T02:00:58.337Z,78.88
2019-03-26T02:03:30.522Z,78.86
2019-03-26T02:06:03.000Z,78.81
2019-03-26T02:08:35.017Z,78.72
2019-03-26T02:11:06.682Z,78.67
2019-03-26T02:13:38.430Z,78.58
2019-03-26T02:16:10.147Z,78.54
2019-03-26T02:18:42.194Z,78.47
2019-03-26T02:21:14.918Z,78.36
2019-03-26T02:23:46.551Z,78.21
2019-03-26T02:26:17.938Z,78.06
2019-03-26T02:28:50.032Z,77.92
2019-03-26T02:31:21.808Z,77.71
2019-03-26T02:33:53.772Z,77.49
2019-03-26T02:36:25.146Z,77.21
2019-03-26T02:38:56.827Z,76.88
2019-03-26T02:41:29.546Z,76.54
2019-03-26T02:44:00.942Z,76.44
2019-03-26T02:46:32.819Z,76.26
2019-03-26T02:49:04.516Z,76.08
2019-03-26T02:51:36.222Z,76.10
2019-03-26T02:54:07.701Z,75.87
2019-03-26T02:56:42.760Z,75.25
2019-03-26T02:59:14.749Z,75.25
2019-03-26T03:01:46.407Z,75.38
2019-03-26T03:04:18.013Z,75.54
2019-03-26T03:06:55.278Z,75.51
2019-03-26T03:09:27.130Z,75.51
2019-03-26T03:11:59.050Z,75.43
2019-03-26T03:14:30.788Z,75.11
2019-03-26T03:17:02.387Z,74.86
2019-03-26T03:19:33.759Z,74.66
2019-03-26T03:22:05.283Z,74.13
2019-03-26T03:24:37.148Z,73.75
2019-03-26T03:27:08.927Z,73.58
2019-03-26T03:29:40.573Z,73.50
2019-03-26T03:32:12.655Z,73.45
2019-03-26T03:34:44.235Z,73.40
2019-03-26T03:37:15.893Z,73.10
2019-03-26T03:39:47.240Z,72.84
2019-03-26T03:42:19.249Z,72.54
2019-03-26T03:44:50.585Z,72.46
2019-03-26T03:47:22.569Z,72.35
2019-03-26T03:49:54.352Z,71.99
2019-03-26T03:52:26.457Z,72.05
2019-03-26T03:54:57.827Z,72.15
2019-03-26T03:57:32.565Z,72.01
2019-03-26T04:00:04.791Z,71.87
2019-03-26T04:02:36.404Z,71.94
2019-03-26T04:05:07.919Z,72.42
2019-03-26T04:07:39.369Z,72.47
2019-03-26T04:10:12.461Z,72.40
2019-03-26T04:12:44.172Z,72.38
2019-03-26T04:15:15.866Z,72.03
2019-03-26T04:17:47.257Z,71.83
2019-03-26T04:20:18.684Z,71.06
2019-03-26T04:22:50.322Z,70.53
2019-03-26T04:25:21.971Z,69.51
2019-03-26T04:27:53.469Z,69.75
2019-03-26T04:30:32.090Z,69.78
2019-03-26T04:33:04.457Z,69.53
2019-03-26T04:35:37.035Z,69.05
2019-03-26T04:38:08.468Z,68.92
2019-03-26T04:40:40.168Z,67.84
2019-03-26T04:43:11.862Z,67.60
2019-03-26T04:45:43.279Z,67.01
2019-03-26T04:48:14.895Z,67.04
2019-03-26T04:50:46.525Z,66.96
2019-03-26T04:53:17.898Z,67.06
2019-03-26T04:55:49.271Z,66.94
2019-03-26T04:58:20.620Z,67.04
2019-03-26T05:00:52.211Z,66.88
2019-03-26T05:03:23.823Z,66.67
2019-03-26T05:05:55.255Z,66.67
2019-03-26T05:08:26.631Z,66.66
2019-03-26T05:10:58.070Z,66.52
2019-03-26T05:13:30.098Z,66.36
2019-03-26T05:16:01.773Z,66.56
2019-03-26T05:18:33.459Z,66.56
2019-03-26T05:21:05.717Z,66.46
2019-03-26T05:23:37.354Z,66.49
2019-03-26T05:26:08.780Z,66.44
2019-03-26T05:28:41.244Z,66.07
2019-03-26T05:31:13.351Z,66.22
2019-03-26T05:33:45.203Z,65.15
2019-03-26T05:36:17.243Z,64.65
2019-03-26T05:38:48.866Z,64.43
2019-03-26T05:41:20.247Z,63.94
2019-03-26T05:43:51.669Z,64.22
2019-03-26T05:46:29.214Z,63.97
2019-03-26T05:49:01.084Z,63.71
2019-03-26T05:51:32.884Z,63.61
2019-03-26T05:54:04.334Z,63.33
2019-03-26T05:56:35.944Z,63.14
2019-03-26T05:59:07.759Z,63.29
2019-03-26T06:01:39.075Z,63.39
2019-03-26T06:04:10.550Z,63.23
2019-03-26T06:06:41.926Z,63.31
2019-03-26T06:09:13.584Z,63.61
2019-03-26T06:11:45.239Z,63.75
2019-03-26T06:14:16.898Z,63.90
2019-03-26T06:16:48.375Z,64.00
2019-03-26T06:19:20.012Z,64.04
2019-03-26T06:21:51.665Z,63.76
2019-03-26T06:24:25.157Z,63.63
2019-03-26T06:26:57.356Z,63.64
2019-03-26T06:29:28.967Z,63.71
2019-03-26T06:32:00.598Z,63.45
2019-03-26T06:34:33.037Z,63.67
2019-03-26T06:37:17.062Z,63.79
2019-03-26T06:39:37.516Z,63.90
2019-03-26T06:42:09.126Z,64.12
2019-03-26T06:44:40.547Z,64.32
2019-03-26T06:47:11.916Z,64.25
2019-03-26T06:49:44.029Z,64.46
2019-03-26T06:52:15.394Z,64.63
2019-03-26T06:54:46.783Z,64.20
2019-03-26T06:57:18.413Z,64.14
2019-03-26T06:59:49.788Z,64.21
2019-03-26T07:02:21.492Z,63.91
2019-03-26T07:04:53.279Z,63.77
2019-03-26T07:07:31.496Z,63.91
2019-03-26T07:09:58.227Z,63.72
2019-03-26T07:12:29.711Z,63.45
2019-03-26T07:15:02.387Z,63.67
2019-03-26T07:17:34.130Z,63.58
2019-03-26T07:20:06.899Z,63.04
2019-03-26T07:22:39.843Z,62.67
2019-03-26T07:25:12.003Z,63.02
2019-03-26T07:27:43.404Z,62.60
2019-03-26T07:30:22.692Z,62.54
2019-03-26T07:32:54.041Z,63.43
2019-03-26T07:35:25.540Z,64.84
2019-03-26T07:37:57.248Z,65.84
2019-03-26T07:40:28.709Z,66.42
2019-03-26T07:43:00.091Z,65.63
2019-03-26T07:45:31.780Z,65.68
2019-03-26T07:48:04.307Z,65.15
2019-03-26T07:50:35.675Z,64.42
2019-03-26T07:53:07.435Z,64.39
2019-03-26T07:55:39.502Z,64.13
2019-03-26T07:58:10.934Z,64.09
2019-03-26T08:00:42.939Z,64.39
2019-03-26T08:03:14.568Z,63.99
2019-03-26T08:05:46.111Z,63.74
2019-03-26T08:08:17.493Z,63.70
2019-03-26T08:10:49.175Z,63.52
2019-03-26T08:13:20.557Z,63.62
2019-03-26T08:15:51.933Z,63.72
2019-03-26T08:18:23.315Z,63.26
2019-03-26T08:20:57.414Z,63.37
2019-03-26T08:23:28.061Z,63.57
2019-03-26T08:25:59.447Z,63.70
2019-03-26T08:28:30.847Z,63.49
2019-03-26T08:31:02.209Z,63.94
2019-03-26T08:33:33.845Z,63.83
2019-03-26T08:36:05.632Z,64.38
2019-03-26T08:38:37.249Z,63.93
2019-03-26T08:41:08.782Z,63.78
2019-03-26T08:43:41.073Z,64.14
2019-03-26T08:46:13.024Z,64.27
2019-03-26T08:48:44.719Z,63.64
2019-03-26T08:51:16.104Z,63.64
2019-03-26T08:53:47.787Z,63.43
2019-03-26T08:56:20.524Z,63.68
2019-03-26T08:58:51.859Z,63.59
2019-03-26T09:01:23.408Z,63.24
2019-03-26T09:04:00.041Z,62.95
2019-03-26T09:06:34.208Z,63.27
2019-03-26T09:09:07.673Z,63.42
2019-03-26T09:11:39.042Z,63.39
2019-03-26T09:14:10.450Z,63.53
2019-03-26T09:16:41.913Z,63.00
2019-03-26T09:19:13.284Z,61.78
2019-03-26T09:21:44.658Z,61.49
2019-03-26T09:24:16.143Z,61.96
2019-03-26T09:26:47.820Z,61.57
2019-03-26T09:29:19.193Z,61.59
2019-03-26T09:31:50.829Z,62.55
2019-03-26T09:34:22.340Z,63.19
2019-03-26T09:36:54.745Z,63.73
2019-03-26T09:39:26.153Z,63.41
2019-03-26T09:41:57.492Z,62.40
2019-03-26T09:44:29.025Z,62.25
2019-03-26T09:47:00.950Z,62.68
2019-03-26T09:49:32.395Z,62.59
2019-03-26T09:52:03.886Z,62.61
2019-03-26T09:54:35.556Z,62.29
2019-03-26T09:57:06.910Z,61.81
2019-03-26T09:59:38.887Z,61.40
2019-03-26T10:02:10.378Z,60.38
2019-03-26T10:04:41.842Z,60.14
2019-03-26T10:07:21.564Z,59.50
2019-03-26T10:09:48.606Z,59.47
2019-03-26T10:12:20.279Z,58.76
2019-03-26T10:14:51.700Z,56.87
2019-03-26T10:17:23.551Z,57.55
2019-03-26T10:19:54.943Z,57.71
2019-03-26T10:22:26.636Z,58.91
2019-03-26T10:24:58.616Z,58.52
2019-03-26T10:27:30.463Z,58.32
2019-03-26T10:30:02.098Z,57.76
2019-03-26T10:32:33.932Z,57.50
2019-03-26T10:35:05.958Z,58.22
2019-03-26T10:37:37.846Z,58.39
2019-03-26T10:40:13.204Z,58.12
2019-03-26T10:42:45.360Z,58.17
2019-03-26T10:45:16.877Z,57.92
2019-03-26T10:47:48.779Z,57.77
2019-03-26T10:50:20.447Z,57.68
2019-03-26T10:52:52.707Z,57.29
2019-03-26T10:55:24.110Z,56.97
2019-03-26T10:57:56.536Z,57.08
2019-03-26T11:00:28.397Z,57.38
2019-03-26T11:02:59.918Z,58.04
2019-03-26T11:05:31.521Z,58.15
2019-03-26T11:08:03.060Z,57.95
2019-03-26T11:10:34.656Z,57.95
2019-03-26T11:13:06.327Z,58.30
2019-03-26T11:15:38.369Z,59.91
2019-03-26T11:18:10.132Z,60.75
2019-03-26T11:20:41.576Z,61.45
2019-03-26T11:23:13.054Z,61.20
2019-03-26T11:25:44.523Z,60.82
2019-03-26T11:28:16.338Z,60.27
2019-03-26T11:30:48.738Z,59.56
2019-03-26T11:33:20.493Z,59.08
2019-03-26T11:35:52.029Z,59.47
2019-03-26T11:38:23.902Z,60.46
2019-03-26T11:40:55.327Z,61.54
2019-03-26T11:43:26.717Z,62.17
2019-03-26T11:45:59.336Z,62.85
2019-03-26T11:48:30.702Z,63.25
2019-03-26T11:51:02.478Z,63.87
2019-03-26T11:53:34.144Z,63.96
2019-03-26T11:56:05.566Z,63.53
2019-03-26T11:58:37.020Z,62.87
2019-03-26T12:01:09.001Z,60.51
2019-03-26T12:03:40.626Z,59.74
2019-03-26T12:06:12.032Z,59.13
2019-03-26T12:08:43.468Z,58.61
2019-03-26T12:11:15.157Z,57.88
2019-03-26T12:13:46.851Z,56.99
2019-03-26T12:16:18.588Z,57.67
2019-03-26T12:18:50.120Z,57.51
2019-03-26T12:21:21.510Z,57.20
2019-03-26T12:23:53.227Z,57.03
2019-03-26T12:26:25.195Z,56.22
2019-03-26T12:28:57.524Z,56.24
2019-03-26T12:31:29.217Z,56.88
2019-03-26T12:34:00.608Z,57.41
2019-03-26T12:36:39.742Z,58.12
2019-03-26T12:39:07.514Z,58.89
2019-03-26T12:41:40.354Z,59.11
2019-03-26T12:44:11.925Z,59.62
2019-03-26T12:46:43.866Z,59.82
2019-03-26T12:49:15.686Z,60.01
2019-03-26T12:51:47.116Z,59.81
2019-03-26T12:54:18.816Z,59.72
2019-03-26T12:56:50.193Z,59.59
2019-03-26T12:59:21.604Z,60.34
2019-03-26T13:01:53.237Z,61.53
2019-03-26T13:04:25.686Z,61.81
2019-03-26T13:06:57.328Z,62.19
2019-03-26T13:09:29.151Z,62.34
2019-03-26T13:12:00.539Z,62.53
2019-03-26T13:14:32.215Z,62.14
2019-03-26T13:17:03.573Z,62.19
2019-03-26T13:19:34.976Z,64.41
2019-03-26T13:22:06.347Z,65.19
2019-03-26T13:24:38.228Z,65.72
2019-03-26T13:27:10.466Z,65.47
2019-03-26T13:29:43.036Z,65.19
2019-03-26T13:32:14.616Z,65.22
2019-03-26T13:34:46.280Z,65.25
2019-03-26T13:37:17.706Z,65.33
2019-03-26T13:39:49.377Z,65.67
2019-03-26T13:42:20.847Z,66.60
2019-03-26T13:44:52.209Z,67.38
2019-03-26T13:47:23.846Z,67.72
2019-03-26T13:49:55.281Z,68.32
2019-03-26T13:52:26.661Z,68.19
2019-03-26T13:54:58.863Z,67.94
2019-03-26T13:57:30.642Z,68.57
2019-03-26T14:00:02.300Z,69.34
2019-03-26T14:02:33.847Z,69.80
2019-03-26T14:05:10.255Z,70.00
2019-03-26T14:07:42.483Z,70.44
2019-03-26T14:10:14.242Z,70.79
2019-03-26T14:12:45.643Z,70.97
2019-03-26T14:15:17.010Z,71.52
2019-03-26T14:17:48.438Z,71.69
2019-03-26T14:20:20.223Z,71.90
2019-03-26T14:22:51.609Z,72.02
2019-03-26T14:25:23.072Z,72.06
2019-03-26T14:27:54.479Z,72.13
2019-03-26T14:30:39.580Z,71.50
2019-03-26T14:33:11.823Z,71.41
2019-03-26T14:35:43.281Z,71.33
2019-03-26T14:38:14.635Z,70.81
2019-03-26T14:40:54.460Z,70.61
2019-03-26T14:43:19.314Z,70.09
2019-03-26T14:45:50.790Z,69.30
2019-03-26T14:48:22.204Z,68.52
2019-03-26T14:50:53.791Z,67.79
2019-03-26T14:53:25.140Z,67.43
2019-03-26T14:55:56.532Z,67.02
2019-03-26T14:58:27.881Z,66.96
2019-03-26T15:00:59.927Z,66.77
2019-03-26T15:03:31.665Z,66.82
2019-03-26T15:06:04.720Z,66.96
2019-03-26T15:08:37.483Z,67.18
2019-03-26T15:11:09.232Z,67.12
2019-03-26T15:13:40.903Z,67.47
2019-03-26T15:16:12.964Z,67.62
2019-03-26T15:18:44.599Z,67.56
2019-03-26T15:21:15.968Z,67.47
2019-03-26T15:23:47.609Z,67.58
2019-03-26T15:26:19.061Z,67.25
2019-03-26T15:28:50.456Z,66.96
2019-03-26T15:31:21.838Z,67.12
2019-03-26T15:33:53.228Z,66.86
2019-03-26T15:36:24.599Z,67.02
2019-03-26T15:38:55.982Z,67.60
2019-03-26T15:41:30.294Z,68.03
2019-03-26T15:44:01.002Z,67.79
2019-03-26T15:46:32.371Z,68.13
2019-03-26T15:49:03.766Z,67.91
2019-03-26T15:51:35.445Z,67.53
2019-03-26T15:54:07.377Z,67.25
2019-03-26T15:56:38.824Z,67.25
2019-03-26T15:59:10.783Z,67.19
2019-03-26T16:01:42.389Z,67.25
2019-03-26T16:04:14.095Z,67.22
2019-03-26T16:06:45.565Z,67.37
2019-03-26T16:09:17.256Z,67.27
2019-03-26T16:11:48.639Z,66.99
2019-03-26T16:14:19.987Z,66.89
2019-03-26T16:16:51.343Z,66.63
2019-03-26T16:19:32.239Z,66.30
2019-03-26T16:21:56.040Z,66.47
2019-03-26T16:24:27.526Z,66.27
2019-03-26T16:26:58.877Z,66.29
2019-03-26T16:29:30.266Z,66.27
2019-03-26T16:32:02.007Z,66.16
2019-03-26T16:34:33.707Z,66.16
2019-03-26T16:37:05.075Z,65.97
2019-03-26T16:39:36.907Z,65.80
2019-03-26T16:42:08.533Z,65.99
2019-03-26T16:44:40.161Z,66.13
2019-03-26T16:47:11.507Z,66.18
2019-03-26T16:49:43.233Z,66.07
2019-03-26T16:52:14.835Z,65.98
2019-03-26T16:54:47.504Z,66.21
2019-03-26T16:57:18.905Z,66.55
2019-03-26T16:59:50.303Z,66.53
2019-03-26T17:02:22.403Z,66.76
2019-03-26T17:04:53.857Z,66.61
2019-03-26T17:07:25.450Z,66.64
2019-03-26T17:09:56.817Z,66.43
2019-03-26T17:12:28.431Z,66.63
2019-03-26T17:14:59.807Z,66.58
2019-03-26T17:17:31.210Z,66.64
2019-03-26T17:20:02.954Z,66.46
2019-03-26T17:22:34.561Z,66.64
2019-03-26T17:25:06.452Z,66.90
2019-03-26T17:27:39.140Z,66.83
2019-03-26T17:30:10.673Z,67.33
2019-03-26T17:32:42.048Z,67.52
2019-03-26T17:35:13.399Z,67.36
2019-03-26T17:37:58.569Z,67.47
2019-03-26T17:40:18.483Z,67.34
2019-03-26T17:42:50.115Z,67.66
2019-03-26T17:45:22.449Z,67.47
2019-03-26T17:47:53.914Z,67.23
2019-03-26T17:50:25.297Z,67.35
2019-03-26T17:52:57.864Z,67.29
2019-03-26T17:55:29.476Z,67.30
2019-03-26T17:58:00.831Z,67.36
2019-03-26T18:00:40.985Z,67.50
2019-03-26T18:03:25.731Z,67.66
2019-03-26T18:05:47.287Z,67.86
2019-03-26T18:08:18.741Z,67.83
2019-03-26T18:10:50.180Z,68.02
2019-03-26T18:13:21.791Z,68.22
2019-03-26T18:15:54.353Z,68.33
2019-03-26T18:18:26.250Z,68.31
2019-03-26T18:20:57.636Z,68.39
2019-03-26T18:23:29.349Z,68.38
2019-03-26T18:26:01.049Z,68.35
2019-03-26T18:28:33.728Z,68.33
2019-03-26T18:31:05.407Z,68.21
2019-03-26T18:33:38.684Z,68.06
2019-03-26T18:36:10.328Z,67.83
2019-03-26T18:38:42.509Z,67.67
2019-03-26T18:41:13.903Z,67.67
2019-03-26T18:43:45.239Z,67.76
2019-03-26T18:46:17.227Z,68.02
2019-03-26T18:48:48.697Z,67.80
2019-03-26T18:51:20.592Z,67.91
2019-03-26T18:53:52.018Z,67.95
2019-03-26T18:56:23.914Z,68.05
2019-03-26T18:58:55.621Z,67.90
2019-03-26T19:01:26.985Z,67.88
2019-03-26T19:03:58.365Z,68.21
2019-03-26T19:06:29.779Z,68.37
2019-03-26T19:09:01.141Z,68.51
2019-03-26T19:11:34.446Z,68.42
2019-03-26T19:14:06.070Z,68.52
2019-03-26T19:16:37.673Z,68.63
2019-03-26T19:19:09.001Z,68.69
2019-03-26T19:21:40.516Z,68.75
2019-03-26T19:24:11.903Z,69.06
2019-03-26T19:26:43.539Z,68.90
2019-03-26T19:29:14.989Z,68.60
2019-03-26T19:31:46.462Z,68.52
2019-03-26T19:34:17.949Z,68.63
2019-03-26T19:36:49.397Z,68.72
2019-03-26T19:39:20.875Z,68.97
2019-03-26T19:41:52.252Z,69.26
2019-03-26T19:44:23.728Z,69.32
2019-03-26T19:46:55.377Z,69.16
2019-03-26T19:49:27.087Z,69.19
2019-03-26T19:51:58.481Z,69.26
2019-03-26T19:54:29.865Z,69.35
2019-03-26T19:57:01.325Z,69.30
2019-03-26T19:59:33.097Z,69.29
2019-03-26T20:02:05.229Z,69.29
2019-03-26T20:04:36.773Z,69.31
2019-03-26T20:07:08.222Z,69.33
2019-03-26T20:09:39.631Z,69.23
2019-03-26T20:12:11.334Z,69.40
2019-03-26T20:14:42.748Z,69.14
2019-03-26T20:17:14.107Z,69.30
2019-03-26T20:19:45.484Z,69.23
2019-03-26T20:22:16.886Z,69.20
2019-03-26T20:24:48.286Z,69.26
2019-03-26T20:27:20.170Z,69.25
2019-03-26T20:29:51.549Z,69.30
2019-03-26T20:32:24.954Z,69.00
2019-03-26T20:34:56.320Z,68.86
2019-03-26T20:37:27.758Z,69.05
2019-03-26T20:39:59.188Z,68.99
2019-03-26T20:42:31.674Z,69.15
2019-03-26T20:45:03.064Z,69.11
2019-03-26T20:47:34.654Z,69.17
2019-03-26T20:50:07.056Z,69.20
2019-03-26T20:52:38.573Z,69.10
2019-03-26T20:55:11.153Z,69.24
2019-03-26T20:57:42.964Z,69.28
2019-03-26T21:00:19.889Z,69.16
2019-03-26T21:02:51.644Z,69.30
2019-03-26T21:05:23.264Z,69.16
2019-03-26T21:07:55.017Z,69.22
2019-03-26T21:10:26.428Z,69.19
2019-03-26T21:12:58.542Z,69.14
2019-03-26T21:15:29.913Z,69.25
2019-03-26T21:18:01.641Z,69.20
2019-03-26T21:20:33.278Z,69.09
2019-03-26T21:23:05.024Z,68.92
2019-03-26T21:25:36.385Z,68.98
2019-03-26T21:28:08.576Z,68.81
2019-03-26T21:30:39.951Z,68.83
2019-03-26T21:33:11.427Z,68.80
2019-03-26T21:35:43.421Z,68.87
2019-03-26T21:38:15.032Z,68.97
2019-03-26T21:40:47.440Z,68.88
2019-03-26T21:45:48.765Z,69.23
2019-03-26T21:48:20.642Z,69.37
2019-03-26T21:50:52.640Z,69.44
2019-03-26T21:53:24.004Z,69.37
2019-03-26T21:56:05.689Z,69.32
2019-03-26T21:58:28.772Z,69.34
2019-03-26T22:01:00.394Z,69.28
2019-03-26T22:03:31.818Z,69.44
2019-03-26T22:06:03.377Z,69.41
2019-03-26T22:08:34.818Z,69.38
2019-03-26T22:11:06.215Z,69.23
2019-03-26T22:13:38.250Z,69.23
2019-03-26T22:16:10.587Z,69.54
2019-03-26T22:18:42.189Z,69.56
2019-03-26T22:21:14.850Z,69.59
2019-03-26T22:23:46.580Z,69.38
2019-03-26T22:26:18.049Z,69.37
2019-03-26T22:28:49.838Z,69.68
2019-03-26T22:31:21.501Z,69.64
2019-03-26T22:33:52.912Z,69.17
2019-03-26T22:36:24.846Z,69.57
2019-03-26T22:38:57.203Z,69.84
2019-03-26T22:41:28.584Z,70.19
2019-03-26T22:44:00.422Z,70.43
2019-03-26T22:46:31.910Z,70.55
2019-03-26T22:49:03.276Z,70.26
2019-03-26T22:51:34.721Z,70.25
2019-03-26T22:54:06.190Z,70.35
2019-03-26T22:56:38.105Z,70.11
2019-03-26T22:59:09.717Z,69.79
2019-03-26T23:01:41.126Z,69.72
2019-03-26T23:04:12.839Z,69.63
2019-03-26T23:06:44.458Z,69.66
2019-03-26T23:09:15.984Z,69.95
2019-03-26T23:11:48.999Z,69.91
2019-03-26T23:14:21.391Z,69.89
2019-03-26T23:16:53.018Z,69.94
2019-03-26T23:19:24.455Z,69.82
2019-03-26T23:21:55.883Z,69.65
2019-03-26T23:24:27.682Z,69.81
2019-03-26T23:26:59.093Z,69.83
2019-03-26T23:29:30.686Z,70.11
2019-03-26T23:32:02.109Z,70.21
2019-03-26T23:34:33.480Z,70.39
2019-03-26T23:37:05.135Z,70.54
2019-03-26T23:39:36.734Z,70.50
2019-03-26T23:42:08.458Z,70.52
2019-03-26T23:44:39.829Z,70.61
2019-03-26T23:47:11.430Z,70.63
2019-03-26T23:49:43.214Z,70.81
2019-03-26T23:52:14.663Z,70.79
2019-03-26T23:54:46.166Z,70.68
2019-03-26T23:57:17.666Z,70.98
2019-03-26T23:59:49.268Z,71.31
